createdAt,value
2019-05-14T00:00:21.620Z,9.00
2019-05-14T00:05:25.816Z,9.20
2019-05-14T00:10:31.989Z,9.20
2019-05-14T00:15:35.058Z,9.40
2019-05-14T00:20:38.706Z,9.70
2019-05-14T00:25:42.357Z,9.70
2019-05-14T00:30:46.077Z,9.70
2019-05-14T00:35:51.463Z,9.40
2019-05-14T00:40:55.381Z,9.50
2019-05-14T00:45:59.027Z,9.60
2019-05-14T00:51:02.655Z,9.60
2019-05-14T00:56:06.302Z,9.70
2019-05-14T01:01:11.858Z,9.80
2019-05-14T01:06:15.547Z,9.80
2019-05-14T01:11:19.222Z,9.80
2019-05-14T01:16:22.858Z,9.80
2019-05-14T01:21:26.591Z,9.80
2019-05-14T01:26:31.012Z,9.70
2019-05-14T01:31:34.904Z,9.80
2019-05-14T01:36:41.194Z,9.80
2019-05-14T01:41:44.433Z,9.80
2019-05-14T01:46:48.014Z,9.70
2019-05-14T01:51:51.601Z,9.70
2019-05-14T01:56:55.196Z,9.60
2019-05-14T02:01:58.864Z,9.50
2019-05-14T02:07:02.781Z,9.40
2019-05-14T02:12:06.500Z,9.40
2019-05-14T02:17:12.188Z,9.30
2019-05-14T02:22:15.758Z,9.30
2019-05-14T02:27:21.251Z,9.20
2019-05-14T02:32:24.666Z,9.10
2019-05-14T02:37:30.149Z,8.90
2019-05-14T02:42:33.640Z,8.90
2019-05-14T02:47:39.716Z,8.90
2019-05-14T02:52:42.990Z,9.20
2019-05-14T02:57:49.816Z,9.30
2019-05-14T03:02:51.811Z,9.30
2019-05-14T03:07:55.548Z,9.40
2019-05-14T03:12:59.285Z,9.40
2019-05-14T03:18:03.009Z,9.40
2019-05-14T03:23:10.584Z,9.30
2019-05-14T03:28:11.983Z,9.40
2019-05-14T03:33:15.636Z,9.40
2019-05-14T03:38:19.824Z,9.20
2019-05-14T03:43:23.813Z,9.10
2019-05-14T03:48:29.599Z,9.00
2019-05-14T03:53:49.742Z,8.80
2019-05-14T03:58:39.408Z,8.60
2019-05-14T04:03:43.381Z,8.40
2019-05-14T04:08:49.710Z,8.50
2019-05-14T04:13:55.036Z,8.40
2019-05-14T04:19:02.136Z,8.40
2019-05-14T04:24:09.503Z,8.50
2019-05-14T04:29:13.427Z,8.40
2019-05-14T04:34:19.494Z,8.60
2019-05-14T04:39:22.382Z,8.50
2019-05-14T04:44:29.481Z,8.60
2019-05-14T04:49:31.337Z,8.60
2019-05-14T04:54:35.062Z,8.70
2019-05-14T04:59:39.978Z,8.80
2019-05-14T05:04:44.125Z,8.90
2019-05-14T05:09:50.162Z,9.00
2019-05-14T05:14:52.938Z,9.10
2019-05-14T05:19:59.119Z,9.20
2019-05-14T05:25:01.830Z,9.20
2019-05-14T05:30:09.326Z,9.40
2019-05-14T05:35:13.450Z,9.50
2019-05-14T05:40:19.760Z,9.50
2019-05-14T05:45:22.754Z,9.70
2019-05-14T05:50:28.562Z,9.90
2019-05-14T05:55:31.738Z,10.10
2019-05-14T06:00:40.396Z,10.30
2019-05-14T06:05:44.496Z,10.30
2019-05-14T06:10:49.041Z,10.30
2019-05-14T06:15:52.745Z,10.40
2019-05-14T06:20:58.598Z,10.60
2019-05-14T06:26:01.729Z,10.70
2019-05-14T06:31:05.342Z,10.70
2019-05-14T06:36:09.023Z,10.90
2019-05-14T06:41:13.006Z,10.90
2019-05-14T06:46:19.013Z,11.10
2019-05-14T06:51:22.173Z,11.30
2019-05-14T06:56:28.068Z,11.60
2019-05-14T07:01:31.192Z,11.70
2019-05-14T07:06:34.837Z,11.90
2019-05-14T07:11:38.986Z,12.20
2019-05-14T07:16:42.733Z,12.60
2019-05-14T07:21:48.961Z,12.70
2019-05-14T07:26:51.654Z,13.10
2019-05-14T07:31:55.241Z,13.40
2019-05-14T07:36:59.182Z,13.70
2019-05-14T07:42:03.214Z,13.80
2019-05-14T07:47:08.260Z,13.80
2019-05-14T07:52:12.142Z,14.00
2019-05-14T07:57:16.148Z,14.40
2019-05-14T08:02:20.187Z,14.50
2019-05-14T08:07:23.914Z,14.60
2019-05-14T08:12:28.518Z,15.10
2019-05-14T08:17:32.301Z,15.10
2019-05-14T08:22:38.319Z,15.40
2019-05-14T08:27:41.843Z,14.70
2019-05-14T08:32:45.778Z,15.40
2019-05-14T08:38:03.465Z,15.30
2019-05-14T08:42:55.121Z,15.20
2019-05-14T08:47:58.792Z,15.80
2019-05-14T08:53:02.526Z,16.00
2019-05-14T08:58:11.070Z,16.20
2019-05-14T09:03:12.037Z,16.20
2019-05-14T09:08:15.634Z,15.90
2019-05-14T09:13:19.592Z,16.10
2019-05-14T09:18:23.183Z,16.50
2019-05-14T09:23:28.677Z,16.60
2019-05-14T09:28:32.089Z,17.00
2019-05-14T09:33:38.646Z,17.40
2019-05-14T09:38:42.473Z,17.70
2019-05-14T09:43:48.416Z,18.00
2019-05-14T09:48:51.482Z,18.10
2019-05-14T09:53:55.222Z,18.10
2019-05-14T09:58:58.905Z,18.20
2019-05-14T10:04:02.622Z,17.60
2019-05-14T10:09:08.509Z,18.40
2019-05-14T10:14:12.006Z,18.00
2019-05-14T10:19:15.666Z,18.00
2019-05-14T10:24:19.316Z,17.90
2019-05-14T10:29:23.237Z,17.80
2019-05-14T10:34:28.726Z,19.00
2019-05-14T10:39:32.067Z,18.60
2019-05-14T10:44:38.471Z,18.80
2019-05-14T10:49:40.914Z,19.20
2019-05-14T10:54:55.480Z,18.80
2019-05-14T10:59:49.879Z,19.20
2019-05-14T11:04:53.891Z,19.30
2019-05-14T11:09:57.484Z,19.80
2019-05-14T11:15:01.410Z,20.10
2019-05-14T11:20:08.082Z,19.30
2019-05-14T11:25:12.208Z,19.10
2019-05-14T11:30:19.016Z,19.60
2019-05-14T11:35:21.915Z,20.20
2019-05-14T11:40:25.592Z,20.90
2019-05-14T11:45:29.737Z,21.50
2019-05-14T11:50:33.392Z,21.60
2019-05-14T11:55:38.888Z,21.70
2019-05-14T12:00:43.145Z,21.90
2019-05-14T12:05:49.162Z,21.50
2019-05-14T12:10:52.002Z,21.30
2019-05-14T12:15:55.663Z,21.50
2019-05-14T12:20:59.584Z,22.00
2019-05-14T12:26:03.394Z,21.30
2019-05-14T12:31:09.293Z,21.20
2019-05-14T12:36:12.435Z,21.70
2019-05-14T12:41:19.058Z,20.80
2019-05-14T12:46:21.557Z,21.50
2019-05-14T12:51:25.166Z,21.90
2019-05-14T12:56:29.519Z,22.00
2019-05-14T13:01:33.298Z,22.40
2019-05-14T13:06:39.916Z,21.70
2019-05-14T13:11:42.427Z,20.60
2019-05-14T13:16:48.485Z,19.80
2019-05-14T13:22:08.777Z,20.00
2019-05-14T13:26:58.810Z,20.20
2019-05-14T13:32:02.485Z,20.50
2019-05-14T13:37:25.750Z,20.10
2019-05-14T13:42:29.879Z,19.20
2019-05-14T13:47:33.805Z,19.10
2019-05-14T13:52:40.517Z,19.00
2019-05-14T13:57:43.047Z,18.40
2019-05-14T14:02:46.770Z,18.70
2019-05-14T14:07:50.532Z,18.70
2019-05-14T14:12:54.613Z,18.50
2019-05-14T14:18:00.446Z,18.80
2019-05-14T14:23:18.887Z,17.90
2019-05-14T14:28:10.074Z,17.40
2019-05-14T14:33:14.295Z,17.10
2019-05-14T14:38:20.091Z,17.50
2019-05-14T14:43:23.287Z,18.20
2019-05-14T14:48:29.918Z,18.20
2019-05-14T14:53:51.255Z,17.60
2019-05-14T14:58:39.196Z,17.80
2019-05-14T15:03:42.805Z,18.50
2019-05-14T15:08:49.423Z,18.00
2019-05-14T15:13:52.382Z,18.10
2019-05-14T15:18:58.327Z,17.90
2019-05-14T15:24:10.105Z,17.80
2019-05-14T15:29:09.691Z,17.70
2019-05-14T15:34:11.985Z,18.00
2019-05-14T15:39:15.659Z,17.80
2019-05-14T15:44:19.699Z,17.90
2019-05-14T15:49:23.470Z,18.40
2019-05-14T15:54:39.931Z,17.70
2019-05-14T15:59:32.444Z,17.30
2019-05-14T16:04:38.570Z,17.30
2019-05-14T16:09:41.283Z,17.00
2019-05-14T16:14:44.881Z,16.90
2019-05-14T16:19:48.778Z,17.30
2019-05-14T16:24:56.872Z,17.80
2019-05-14T16:29:58.646Z,18.00
2019-05-14T16:35:02.444Z,17.60
2019-05-14T16:40:06.988Z,17.40
2019-05-14T16:45:11.418Z,17.70
2019-05-14T16:50:15.550Z,17.80
2019-05-14T16:55:26.452Z,17.70
2019-05-14T17:00:24.669Z,17.50
2019-05-14T17:05:29.999Z,17.20
2019-05-14T17:10:33.742Z,17.20
2019-05-14T17:15:40.566Z,16.80
2019-05-14T17:20:44.158Z,16.50
2019-05-14T17:25:48.587Z,16.20
2019-05-14T17:30:52.445Z,16.30
2019-05-14T17:35:58.467Z,15.90
2019-05-14T17:41:01.725Z,15.90
2019-05-14T17:46:05.378Z,15.60
2019-05-14T17:51:09.592Z,15.70
2019-05-14T17:56:13.404Z,15.60
2019-05-14T18:01:18.289Z,15.70
2019-05-14T18:06:22.102Z,15.50
2019-05-14T18:11:25.685Z,15.50
2019-05-14T18:16:29.348Z,15.20
2019-05-14T18:21:33.425Z,14.90
2019-05-14T18:26:38.567Z,14.60
2019-05-14T18:31:45.390Z,14.60
2019-05-14T18:36:48.921Z,14.40
2019-05-14T18:41:52.597Z,14.50
2019-05-14T18:46:59.201Z,14.20
2019-05-14T18:52:01.660Z,14.20
2019-05-14T18:57:11.295Z,14.10
2019-05-14T19:02:12.899Z,14.00
2019-05-14T19:07:18.695Z,13.70
2019-05-14T19:12:21.883Z,13.50
2019-05-14T19:17:28.154Z,13.40
2019-05-14T19:22:31.247Z,13.20
2019-05-14T19:27:34.918Z,13.10
2019-05-14T19:32:39.496Z,13.00
2019-05-14T19:37:43.241Z,12.90
2019-05-14T19:42:48.549Z,12.80
2019-05-14T19:47:52.682Z,12.80
2019-05-14T19:52:58.789Z,12.40
2019-05-14T19:58:01.979Z,12.40
2019-05-14T20:03:05.661Z,12.40
2019-05-14T20:08:09.867Z,12.30
2019-05-14T20:13:13.991Z,12.30
2019-05-14T20:18:17.654Z,12.10
2019-05-14T20:23:21.241Z,12.00
2019-05-14T20:28:24.853Z,12.00
2019-05-14T20:33:28.439Z,11.90
2019-05-14T20:38:32.606Z,11.80
2019-05-14T20:43:38.313Z,11.80
2019-05-14T20:48:41.601Z,11.80
2019-05-14T20:53:45.395Z,11.60
2019-05-14T20:58:49.052Z,11.60
2019-05-14T21:03:52.638Z,11.40
2019-05-14T21:08:58.328Z,11.10
2019-05-14T21:14:01.633Z,11.20
2019-05-14T21:19:08.588Z,10.90
2019-05-14T21:24:12.461Z,11.00
2019-05-14T21:29:16.138Z,11.00
2019-05-14T21:34:20.251Z,10.90
2019-05-14T21:39:24.271Z,10.90
2019-05-14T21:44:28.435Z,10.80
2019-05-14T21:49:32.090Z,10.80
2019-05-14T21:54:35.746Z,10.80
2019-05-14T21:59:39.499Z,10.70
2019-05-14T22:04:43.724Z,10.60
2019-05-14T22:10:07.418Z,10.60
2019-05-14T22:15:11.375Z,10.40
2019-05-14T22:20:15.313Z,10.50
2019-05-14T22:25:19.170Z,10.40
2019-05-14T22:30:23.202Z,10.20
2019-05-14T22:35:28.323Z,10.30
2019-05-14T22:40:32.320Z,10.20
2019-05-14T22:45:36.446Z,10.10
2019-05-14T22:50:41.472Z,10.10
2019-05-14T22:55:45.232Z,10.10
2019-05-14T23:01:01.534Z,10.00
2019-05-14T23:05:54.094Z,9.70
2019-05-14T23:10:58.954Z,9.60
2019-05-14T23:16:03.082Z,9.70
2019-05-14T23:21:08.853Z,9.70
2019-05-14T23:26:11.986Z,9.80
2019-05-14T23:31:15.639Z,9.70
2019-05-14T23:36:19.387Z,9.70
2019-05-14T23:41:22.965Z,9.50
2019-05-14T23:46:29.010Z,9.40
2019-05-14T23:51:31.797Z,9.40
2019-05-14T23:56:35.373Z,9.30
